createdAt,value
2017-09-02T00:01:23.845Z,12.93
2017-09-02T00:03:51.365Z,11.97
2017-09-02T00:06:18.918Z,13.70
2017-09-02T00:08:46.488Z,12.93
2017-09-02T00:11:14.024Z,13.90
2017-09-02T00:13:41.583Z,12.80
2017-09-02T00:16:09.457Z,12.00
2017-09-02T00:18:38.967Z,11.97
2017-09-02T00:21:06.705Z,13.87
2017-09-02T00:23:34.279Z,13.00
2017-09-02T00:26:01.821Z,12.43
2017-09-02T00:28:29.352Z,12.27
2017-09-02T00:30:57.741Z,13.37
2017-09-02T00:33:25.285Z,12.17
2017-09-02T00:35:52.904Z,12.80
2017-09-02T00:38:20.531Z,12.40
2017-09-02T00:40:48.090Z,12.80
2017-09-02T00:43:16.060Z,14.10
2017-09-02T00:45:43.931Z,12.50
2017-09-02T00:48:11.535Z,13.10
2017-09-02T00:50:39.308Z,13.10
2017-09-02T00:53:07.064Z,12.60
2017-09-02T00:55:34.652Z,14.20
2017-09-02T00:58:02.475Z,13.60
2017-09-02T01:00:30.055Z,14.47
2017-09-02T01:02:57.593Z,13.07
2017-09-02T01:05:25.149Z,13.80
2017-09-02T01:07:52.945Z,13.40
2017-09-02T01:10:20.491Z,13.77
2017-09-02T01:12:48.041Z,14.27
2017-09-02T01:15:15.613Z,14.10
2017-09-02T01:17:43.121Z,13.57
2017-09-02T01:20:10.650Z,13.07
2017-09-02T01:22:38.195Z,13.60
2017-09-02T01:25:05.724Z,14.10
2017-09-02T01:27:33.272Z,12.70
2017-09-02T01:30:00.855Z,12.23
2017-09-02T01:32:28.482Z,13.50
2017-09-02T01:34:56.006Z,14.57
2017-09-02T01:37:23.560Z,13.90
2017-09-02T01:39:51.151Z,13.67
2017-09-02T01:42:18.676Z,13.47
2017-09-02T01:44:47.020Z,14.03
2017-09-02T01:47:14.586Z,12.90
2017-09-02T01:49:42.094Z,13.03
2017-09-02T01:52:09.612Z,13.47
2017-09-02T01:54:37.377Z,12.90
2017-09-02T01:57:04.900Z,13.03
2017-09-02T01:59:32.959Z,14.17
2017-09-02T02:02:00.520Z,15.30
2017-09-02T02:04:28.066Z,13.90
2017-09-02T02:06:55.605Z,14.20
2017-09-02T02:09:23.155Z,14.67
2017-09-02T02:11:50.911Z,13.70
2017-09-02T02:14:18.447Z,15.33
2017-09-02T02:16:46.240Z,17.40
2017-09-02T02:19:13.797Z,16.63
2017-09-02T02:21:41.315Z,16.97
2017-09-02T02:24:09.206Z,17.70
2017-09-02T02:26:36.713Z,17.87
2017-09-02T02:29:04.239Z,19.93
2017-09-02T02:31:31.844Z,16.50
2017-09-02T02:33:59.372Z,16.47
2017-09-02T02:36:26.898Z,17.43
2017-09-02T02:38:54.669Z,17.63
2017-09-02T02:41:22.646Z,17.43
2017-09-02T02:43:50.167Z,16.83
2017-09-02T02:46:17.817Z,16.30
2017-09-02T02:48:45.348Z,18.53
2017-09-02T02:51:12.887Z,17.03
2017-09-02T02:53:40.446Z,17.27
2017-09-02T02:56:07.990Z,16.27
2017-09-02T02:58:35.891Z,17.40
2017-09-02T03:01:03.513Z,15.57
2017-09-02T03:03:31.061Z,17.40
2017-09-02T03:05:58.598Z,16.03
2017-09-02T03:08:26.151Z,16.10
2017-09-02T03:10:53.677Z,16.50
2017-09-02T03:13:21.220Z,16.33
2017-09-02T03:15:48.987Z,15.60
2017-09-02T03:18:16.511Z,16.57
2017-09-02T03:20:44.021Z,15.47
2017-09-02T03:23:11.588Z,18.67
2017-09-02T03:25:39.175Z,16.63
2017-09-02T03:28:06.721Z,16.83
2017-09-02T03:30:34.513Z,16.83
2017-09-02T03:33:02.184Z,15.90
2017-09-02T03:35:29.818Z,15.57
2017-09-02T03:37:57.539Z,15.50
2017-09-02T03:40:25.168Z,16.10
2017-09-02T03:42:52.955Z,15.30
2017-09-02T03:45:20.533Z,15.10
2017-09-02T03:47:48.044Z,15.80
2017-09-02T03:50:15.603Z,16.20
2017-09-02T03:52:43.154Z,14.50
2017-09-02T03:55:10.692Z,16.30
2017-09-02T03:57:38.220Z,15.40
2017-09-02T04:00:06.936Z,15.70
2017-09-02T04:02:34.465Z,15.50
2017-09-02T04:05:02.028Z,16.93
2017-09-02T04:07:29.663Z,15.90
2017-09-02T04:09:57.456Z,19.00
2017-09-02T04:12:25.002Z,16.53
2017-09-02T04:14:52.637Z,15.33
2017-09-02T04:17:20.203Z,17.10
2017-09-02T04:19:47.756Z,15.97
2017-09-02T04:22:15.352Z,16.53
2017-09-02T04:24:42.878Z,15.90
2017-09-02T04:27:10.687Z,17.40
2017-09-02T04:29:38.279Z,18.23
2017-09-02T04:32:05.832Z,17.17
2017-09-02T04:34:33.352Z,16.20
2017-09-02T04:37:01.111Z,16.70
2017-09-02T04:39:28.661Z,15.07
2017-09-02T04:41:56.199Z,15.03
2017-09-02T04:44:23.713Z,14.97
2017-09-02T04:46:51.295Z,14.43
2017-09-02T04:49:18.836Z,15.57
2017-09-02T04:51:46.370Z,13.43
2017-09-02T04:54:13.904Z,14.07
2017-09-02T04:56:41.415Z,13.97
2017-09-02T04:59:09.314Z,15.00
2017-09-02T05:01:37.085Z,17.47
2017-09-02T05:04:04.629Z,17.13
2017-09-02T05:06:32.392Z,16.57
2017-09-02T05:08:59.967Z,15.70
2017-09-02T05:11:27.501Z,15.40
2017-09-02T05:13:55.064Z,16.97
2017-09-02T05:16:23.345Z,16.90
2017-09-02T05:18:50.861Z,15.50
2017-09-02T05:21:18.459Z,15.57
2017-09-02T05:23:46.006Z,16.13
2017-09-02T05:26:13.538Z,19.03
2017-09-02T05:28:41.045Z,22.20
2017-09-02T05:31:08.621Z,21.37
2017-09-02T05:33:36.148Z,22.57
2017-09-02T05:36:03.958Z,21.10
2017-09-02T05:38:31.826Z,19.57
2017-09-02T05:40:59.451Z,19.40
2017-09-02T05:43:27.215Z,19.90
2017-09-02T05:45:54.825Z,16.60
2017-09-02T05:48:22.703Z,17.60
2017-09-02T05:50:50.298Z,17.50
2017-09-02T05:53:17.904Z,16.80
2017-09-02T05:55:45.555Z,15.37
2017-09-02T05:58:13.213Z,16.07
2017-09-02T06:00:41.750Z,15.37
2017-09-02T06:03:10.168Z,14.33
2017-09-02T06:05:38.584Z,16.67
2017-09-02T06:10:56.076Z,14.97
2017-09-02T06:13:33.534Z,15.10
2017-09-02T06:16:05.691Z,14.47
2017-09-02T06:18:33.360Z,15.50
2017-09-02T06:24:20.970Z,14.97
2017-09-02T06:26:50.721Z,16.27
2017-09-02T06:29:18.970Z,15.37
2017-09-02T06:31:47.224Z,15.30
2017-09-02T06:34:14.834Z,13.20
2017-09-02T06:36:42.440Z,13.70
2017-09-02T06:39:10.099Z,12.80
2017-09-02T06:41:37.701Z,13.47
2017-09-02T06:44:05.659Z,14.73
2017-09-02T06:46:33.301Z,13.83
2017-09-02T06:49:01.625Z,13.47
2017-09-02T06:51:29.215Z,13.50
2017-09-02T06:53:56.809Z,13.50
2017-09-02T06:56:24.378Z,12.60
2017-09-02T06:58:52.039Z,13.20
2017-09-02T07:01:20.115Z,13.00
2017-09-02T07:03:47.744Z,13.70
2017-09-02T07:06:15.313Z,13.73
2017-09-02T07:08:44.304Z,14.30
2017-09-02T07:11:11.873Z,14.20
2017-09-02T07:13:39.841Z,14.00
2017-09-02T07:16:08.525Z,14.20
2017-09-02T07:18:36.126Z,13.33
2017-09-02T07:21:03.809Z,14.07
2017-09-02T07:23:32.009Z,15.60
2017-09-02T07:26:00.396Z,14.27
2017-09-02T07:28:28.086Z,13.73
2017-09-02T07:30:55.996Z,14.33
2017-09-02T07:33:25.156Z,14.40
2017-09-02T07:35:52.926Z,14.43
2017-09-02T07:38:22.831Z,14.00
2017-09-02T07:40:51.067Z,14.97
2017-09-02T07:43:18.781Z,15.17
2017-09-02T07:45:46.840Z,14.00
2017-09-02T07:48:15.881Z,13.90
2017-09-02T07:50:43.577Z,16.20
2017-09-02T07:53:11.779Z,17.37
2017-09-02T07:55:39.964Z,15.90
2017-09-02T07:58:07.706Z,16.20
2017-09-02T08:00:38.604Z,15.30
2017-09-02T08:03:07.835Z,14.23
2017-09-02T08:05:37.621Z,13.97
2017-09-02T08:08:06.868Z,16.47
2017-09-02T08:10:35.292Z,13.53
2017-09-02T08:13:03.050Z,14.50
2017-09-02T08:15:30.712Z,13.83
2017-09-02T08:17:58.948Z,15.23
2017-09-02T08:20:26.588Z,14.90
2017-09-02T08:22:54.989Z,14.00
2017-09-02T08:25:22.820Z,16.70
2017-09-02T08:27:50.454Z,13.83
2017-09-02T08:30:18.434Z,15.70
2017-09-02T08:32:46.110Z,13.20
2017-09-02T08:35:14.398Z,15.07
2017-09-02T08:37:42.280Z,14.93
2017-09-02T08:40:10.133Z,14.07
2017-09-02T08:42:38.460Z,13.47
2017-09-02T08:45:06.116Z,13.50
2017-09-02T08:47:33.785Z,13.80
2017-09-02T08:50:03.063Z,13.10
2017-09-02T08:52:30.859Z,14.60
2017-09-02T08:54:58.771Z,13.50
2017-09-02T08:57:26.757Z,12.77
2017-09-02T08:59:54.551Z,12.97
2017-09-02T09:02:22.395Z,12.50
2017-09-02T09:04:49.963Z,12.90
2017-09-02T09:07:17.714Z,13.80
2017-09-02T09:09:45.359Z,12.83
2017-09-02T09:12:13.018Z,13.70
2017-09-02T09:14:40.706Z,12.90
2017-09-02T09:17:08.369Z,12.73
2017-09-02T09:19:35.902Z,12.70
2017-09-02T09:22:03.448Z,12.53
2017-09-02T09:24:31.357Z,12.87
2017-09-02T09:26:58.992Z,13.30
2017-09-02T09:29:26.585Z,13.40
2017-09-02T09:31:54.189Z,13.47
2017-09-02T09:34:21.832Z,13.00
2017-09-02T09:36:49.367Z,13.70
2017-09-02T09:39:17.309Z,12.43
2017-09-02T09:41:44.901Z,14.00
2017-09-02T09:44:12.455Z,14.60
2017-09-02T09:46:40.042Z,13.20
2017-09-02T09:49:07.816Z,12.03
2017-09-02T09:51:35.418Z,13.03
2017-09-02T09:54:03.063Z,12.40
2017-09-02T09:56:30.597Z,12.70
2017-09-02T09:59:03.115Z,14.10
2017-09-02T10:01:34.673Z,13.10
2017-09-02T10:04:04.149Z,12.97
2017-09-02T10:06:34.293Z,13.20
2017-09-02T10:09:06.733Z,12.63
2017-09-02T10:11:34.530Z,13.50
2017-09-02T10:14:07.147Z,12.23
2017-09-02T10:16:35.653Z,11.60
2017-09-02T10:19:03.283Z,11.17
2017-09-02T10:21:34.745Z,12.10
2017-09-02T10:24:02.543Z,12.37
2017-09-02T10:26:30.841Z,12.53
2017-09-02T10:28:59.698Z,12.50
2017-09-02T10:31:27.264Z,11.97
2017-09-02T10:33:54.861Z,12.20
2017-09-02T10:36:22.726Z,11.27
2017-09-02T10:38:50.897Z,12.00
2017-09-02T10:41:18.524Z,12.20
2017-09-02T10:43:46.053Z,11.20
2017-09-02T10:46:13.597Z,10.17
2017-09-02T10:48:41.190Z,10.97
2017-09-02T10:51:08.764Z,10.00
2017-09-02T10:53:36.936Z,11.33
2017-09-02T10:56:04.461Z,10.40
2017-09-02T10:58:32.965Z,9.07
2017-09-02T11:01:00.531Z,10.30
2017-09-02T11:03:28.092Z,10.60
2017-09-02T11:05:55.648Z,10.70
2017-09-02T11:08:23.750Z,10.67
2017-09-02T11:10:51.353Z,10.67
2017-09-02T11:13:19.055Z,10.73
2017-09-02T11:15:46.798Z,11.37
2017-09-02T11:18:14.318Z,11.47
2017-09-02T11:20:41.838Z,11.70
2017-09-02T11:23:09.408Z,11.97
2017-09-02T11:25:36.940Z,11.03
2017-09-02T11:28:04.686Z,11.80
2017-09-02T11:30:32.261Z,12.70
2017-09-02T11:32:59.856Z,11.40
2017-09-02T11:35:27.401Z,11.70
2017-09-02T11:37:54.963Z,12.10
2017-09-02T11:40:22.628Z,12.20
2017-09-02T11:42:50.459Z,11.47
2017-09-02T11:45:18.623Z,11.43
2017-09-02T11:47:46.219Z,10.80
2017-09-02T11:50:13.969Z,12.73
2017-09-02T11:52:41.797Z,10.70
2017-09-02T11:55:09.500Z,12.00
2017-09-02T11:57:37.032Z,11.17
2017-09-02T12:00:07.584Z,11.30
2017-09-02T12:02:35.120Z,10.10
2017-09-02T12:05:02.916Z,11.30
2017-09-02T12:07:30.542Z,11.53
2017-09-02T12:09:58.063Z,11.37
2017-09-02T12:12:25.609Z,11.60
2017-09-02T12:14:53.696Z,12.57
2017-09-02T12:17:21.235Z,11.57
2017-09-02T12:19:49.023Z,12.90
2017-09-02T12:22:17.599Z,12.40
2017-09-02T12:24:45.184Z,12.13
2017-09-02T12:27:12.913Z,12.23
2017-09-02T12:29:40.482Z,13.13
2017-09-02T12:32:08.040Z,12.27
2017-09-02T12:34:35.638Z,19.63
2017-09-02T12:37:03.416Z,12.43
2017-09-02T12:39:31.037Z,15.37
2017-09-02T12:41:58.557Z,14.10
2017-09-02T12:44:26.084Z,13.00
2017-09-02T12:46:53.629Z,13.23
2017-09-02T12:49:21.423Z,16.20
2017-09-02T12:51:48.991Z,14.50
2017-09-02T12:54:16.559Z,13.37
2017-09-02T12:56:44.169Z,12.83
2017-09-02T12:59:11.701Z,13.80
2017-09-02T13:01:39.665Z,13.10
2017-09-02T13:04:07.252Z,14.30
2017-09-02T13:06:35.038Z,14.03
2017-09-02T13:09:02.624Z,14.40
2017-09-02T13:11:30.207Z,15.20
2017-09-02T13:13:57.748Z,16.30
2017-09-02T13:16:25.374Z,15.60
2017-09-02T13:18:52.893Z,15.73
2017-09-02T13:21:20.479Z,18.40
2017-09-02T13:23:48.079Z,17.37
2017-09-02T13:26:15.592Z,17.30
2017-09-02T13:28:43.117Z,17.73
2017-09-02T13:31:10.689Z,14.10
2017-09-02T13:33:38.240Z,17.90
2017-09-02T13:36:05.791Z,17.40
2017-09-02T13:38:33.430Z,16.30
2017-09-02T13:41:00.950Z,12.83
2017-09-02T13:43:28.462Z,13.93
2017-09-02T13:45:56.057Z,15.40
2017-09-02T13:48:23.592Z,18.20
2017-09-02T13:50:51.147Z,12.80
2017-09-02T13:53:18.748Z,12.77
2017-09-02T13:55:46.276Z,13.20
2017-09-02T13:58:13.801Z,12.33
2017-09-02T14:00:41.341Z,13.57
2017-09-02T14:03:08.873Z,14.90
2017-09-02T14:05:36.417Z,15.17
2017-09-02T14:08:04.007Z,14.20
2017-09-02T14:10:32.275Z,20.00
2017-09-02T14:12:59.831Z,13.80
2017-09-02T14:15:27.636Z,14.60
2017-09-02T14:17:55.439Z,13.53
2017-09-02T14:20:23.011Z,14.30
2017-09-02T14:22:50.570Z,19.67
2017-09-02T14:25:18.169Z,15.03
2017-09-02T14:27:45.949Z,13.93
2017-09-02T14:30:13.598Z,14.83
2017-09-02T14:32:41.202Z,17.27
2017-09-02T14:35:09.014Z,14.67
2017-09-02T14:37:36.603Z,13.50
2017-09-02T14:40:04.121Z,13.10
2017-09-02T14:42:32.038Z,13.57
2017-09-02T14:44:59.620Z,14.00
2017-09-02T14:47:27.420Z,12.70
2017-09-02T14:49:55.027Z,13.20
2017-09-02T14:52:22.601Z,12.93
2017-09-02T14:54:50.366Z,14.43
2017-09-02T14:57:17.898Z,15.00
2017-09-02T14:59:45.668Z,14.47
2017-09-02T15:02:13.215Z,14.27
2017-09-02T15:04:40.956Z,15.40
2017-09-02T15:07:08.469Z,16.20
2017-09-02T15:09:36.054Z,13.70
2017-09-02T15:12:04.240Z,15.07
2017-09-02T15:14:31.774Z,16.07
2017-09-02T15:16:59.364Z,15.70
2017-09-02T15:19:26.926Z,15.27
2017-09-02T15:21:54.535Z,15.73
2017-09-02T15:24:22.380Z,16.00
2017-09-02T15:26:49.998Z,15.33
2017-09-02T15:29:17.647Z,14.77
2017-09-02T15:31:45.470Z,15.90
2017-09-02T15:34:13.017Z,15.70
2017-09-02T15:36:40.630Z,15.20
2017-09-02T15:39:08.231Z,15.07
2017-09-02T15:41:35.785Z,14.83
2017-09-02T15:44:03.351Z,17.00
2017-09-02T15:46:30.924Z,16.40
2017-09-02T15:48:58.508Z,17.27
2017-09-02T15:51:26.301Z,14.80
2017-09-02T15:53:53.885Z,16.30
2017-09-02T15:56:21.427Z,16.10
2017-09-02T15:58:48.989Z,15.60
2017-09-02T16:01:16.847Z,14.73
2017-09-02T16:03:44.404Z,16.37
2017-09-02T16:06:12.004Z,16.77
2017-09-02T16:08:39.665Z,14.70
2017-09-02T16:11:07.473Z,15.37
2017-09-02T16:13:35.043Z,15.60
2017-09-02T16:16:03.545Z,14.70
2017-09-02T16:18:31.371Z,17.00
2017-09-02T16:20:59.175Z,15.13
2017-09-02T16:23:26.751Z,20.07
2017-09-02T16:25:54.296Z,16.33
2017-09-02T16:28:21.891Z,15.17
2017-09-02T16:30:49.469Z,14.80
2017-09-02T16:33:17.271Z,16.03
2017-09-02T16:35:45.032Z,15.87
2017-09-02T16:38:12.640Z,14.77
2017-09-02T16:40:40.219Z,14.27
2017-09-02T16:43:07.993Z,14.40
2017-09-02T16:45:35.760Z,15.93
2017-09-02T16:48:03.355Z,14.50
2017-09-02T16:50:30.920Z,14.17
2017-09-02T16:52:58.504Z,14.80
2017-09-02T16:55:26.124Z,14.03
2017-09-02T16:57:53.902Z,15.47
2017-09-02T17:00:21.658Z,16.10
2017-09-02T17:02:49.252Z,14.60
2017-09-02T17:05:17.036Z,14.40
2017-09-02T17:07:44.631Z,14.10
2017-09-02T17:10:12.204Z,13.47
2017-09-02T17:12:39.968Z,15.03
2017-09-02T17:15:07.601Z,14.67
2017-09-02T17:17:35.424Z,11.73
2017-09-02T17:20:03.049Z,11.53
2017-09-02T17:22:30.637Z,11.53
2017-09-02T17:24:58.276Z,12.07
2017-09-02T17:27:25.835Z,11.77
2017-09-02T17:29:53.447Z,11.63
2017-09-02T17:32:21.041Z,10.70
2017-09-02T17:34:48.613Z,10.73
2017-09-02T17:37:16.183Z,9.67
2017-09-02T17:39:43.785Z,10.93
2017-09-02T17:42:11.324Z,11.03
2017-09-02T17:44:38.894Z,10.97
2017-09-02T17:47:06.456Z,10.47
2017-09-02T17:49:34.393Z,11.60
2017-09-02T17:52:03.195Z,11.33
2017-09-02T17:54:30.891Z,11.47
2017-09-02T17:56:58.786Z,10.60
2017-09-02T17:59:26.601Z,12.57
2017-09-02T18:01:54.257Z,12.30
2017-09-02T18:04:21.826Z,10.87
2017-09-02T18:06:49.438Z,11.10
2017-09-02T18:09:17.219Z,10.67
2017-09-02T18:11:44.989Z,10.80
2017-09-02T18:14:12.582Z,11.07
2017-09-02T18:16:40.369Z,11.10
2017-09-02T18:19:07.911Z,13.17
2017-09-02T18:21:35.540Z,13.90
2017-09-02T18:24:03.308Z,11.83
2017-09-02T18:26:30.930Z,10.30
2017-09-02T18:28:58.682Z,11.37
2017-09-02T18:31:26.296Z,12.33
2017-09-02T18:33:53.829Z,12.40
2017-09-02T18:36:21.336Z,11.70
2017-09-02T18:38:48.931Z,12.30
2017-09-02T18:41:16.498Z,11.77
2017-09-02T18:43:44.023Z,12.30
2017-09-02T18:46:11.910Z,12.43
2017-09-02T18:48:39.470Z,11.43
2017-09-02T18:51:07.065Z,12.13
2017-09-02T18:53:34.741Z,11.73
2017-09-02T18:56:02.363Z,11.60
2017-09-02T18:58:30.142Z,12.57
2017-09-02T19:00:57.739Z,12.27
2017-09-02T19:03:25.329Z,12.40
2017-09-02T19:05:52.875Z,11.53
2017-09-02T19:08:20.454Z,12.10
2017-09-02T19:10:48.020Z,11.67
2017-09-02T19:13:15.579Z,11.90
2017-09-02T19:15:43.166Z,11.80
2017-09-02T19:24:22.186Z,10.87
2017-09-02T19:26:49.785Z,10.70
2017-09-02T19:29:17.384Z,10.17
2017-09-02T19:31:45.713Z,9.60
2017-09-02T19:34:13.328Z,9.70
2017-09-02T19:36:41.890Z,9.47
2017-09-02T19:39:09.522Z,9.40
2017-09-02T19:41:37.057Z,9.10
2017-09-02T19:44:04.630Z,9.23
2017-09-02T19:46:32.365Z,9.70
2017-09-02T19:49:00.894Z,9.70
2017-09-02T19:51:28.445Z,9.67
2017-09-02T19:53:56.075Z,9.50
2017-09-02T19:56:23.685Z,9.60
2017-09-02T19:58:51.272Z,10.00
2017-09-02T20:01:18.849Z,9.93
2017-09-02T20:03:46.387Z,9.33
2017-09-02T20:06:13.925Z,9.37
2017-09-02T20:08:41.548Z,10.07
2017-09-02T20:11:09.155Z,10.10
2017-09-02T20:13:36.720Z,9.67
2017-09-02T20:16:04.276Z,11.43
2017-09-02T20:18:31.885Z,10.40
2017-09-02T20:20:59.638Z,10.30
2017-09-02T20:23:27.722Z,9.93
2017-09-02T20:25:56.159Z,10.83
2017-09-02T20:28:24.637Z,10.70
2017-09-02T20:30:52.750Z,10.50
2017-09-02T20:33:20.517Z,8.80
2017-09-02T20:35:48.173Z,10.30
2017-09-02T20:38:16.688Z,9.27
2017-09-02T20:40:44.944Z,8.03
2017-09-02T20:43:12.733Z,9.33
2017-09-02T20:45:41.331Z,11.03
2017-09-02T20:48:09.658Z,9.70
2017-09-02T20:50:37.832Z,8.40
2017-09-02T20:53:06.738Z,8.70
2017-09-02T20:55:34.595Z,9.10
2017-09-02T20:58:02.759Z,9.10
2017-09-02T21:00:32.030Z,9.30
2017-09-02T21:02:59.742Z,8.40
2017-09-02T21:05:28.159Z,9.70
2017-09-02T21:07:57.210Z,9.47
2017-09-02T21:10:25.949Z,9.90
2017-09-02T21:12:54.579Z,10.00
2017-09-02T21:15:23.418Z,9.40
2017-09-02T21:17:51.278Z,9.33
2017-09-02T21:20:19.860Z,9.70
2017-09-02T21:22:48.279Z,9.03
2017-09-02T21:25:16.068Z,9.30
2017-09-02T21:27:45.522Z,8.20
2017-09-02T21:30:18.718Z,9.23
2017-09-02T21:32:48.319Z,9.50
2017-09-02T21:35:17.941Z,8.20
2017-09-02T21:37:47.243Z,8.60
2017-09-02T21:40:17.130Z,8.43
2017-09-02T21:42:47.182Z,8.90
2017-09-02T21:45:17.199Z,8.73
2017-09-02T21:47:48.067Z,9.03
2017-09-02T21:50:17.542Z,8.00
2017-09-02T21:52:46.590Z,9.40
2017-09-02T21:55:17.490Z,9.60
2017-09-02T21:57:46.810Z,8.10
2017-09-02T22:00:15.591Z,8.77
2017-09-02T22:02:45.355Z,9.13
2017-09-02T22:05:14.496Z,8.87
2017-09-02T22:07:43.769Z,8.83
2017-09-02T22:10:12.488Z,8.90
2017-09-02T22:12:41.350Z,8.37
2017-09-02T22:15:09.027Z,8.03
2017-09-02T22:17:36.752Z,9.00
2017-09-02T22:20:04.459Z,8.73
2017-09-02T22:22:32.332Z,8.97
2017-09-02T22:25:05.717Z,8.90
2017-09-02T22:27:37.996Z,9.27
2017-09-02T22:30:08.808Z,7.90
2017-09-02T22:32:37.307Z,8.90
2017-09-02T22:35:06.808Z,8.30
2017-09-02T22:37:35.360Z,8.50
2017-09-02T22:40:03.193Z,8.30
2017-09-02T22:42:31.121Z,9.10
2017-09-02T22:44:58.950Z,8.90
2017-09-02T22:47:26.659Z,8.37
2017-09-02T22:49:54.395Z,8.10
2017-09-02T22:52:22.480Z,8.93
2017-09-02T22:54:50.164Z,7.80
2017-09-02T22:57:17.691Z,9.20
2017-09-02T22:59:45.285Z,8.20
2017-09-02T23:02:12.898Z,8.60
2017-09-02T23:04:40.439Z,8.70
2017-09-02T23:07:07.987Z,8.57
2017-09-02T23:09:35.596Z,8.30
2017-09-02T23:12:03.354Z,7.83
2017-09-02T23:14:30.915Z,7.63
2017-09-02T23:16:58.555Z,8.20
2017-09-02T23:19:26.164Z,8.07
2017-09-02T23:21:53.826Z,9.20
2017-09-02T23:24:21.431Z,8.03
2017-09-02T23:26:49.208Z,9.40
2017-09-02T23:29:16.757Z,9.23
2017-09-02T23:31:44.405Z,9.77
2017-09-02T23:34:11.947Z,7.87
2017-09-02T23:36:39.478Z,8.50
2017-09-02T23:39:07.061Z,9.07
2017-09-02T23:41:34.592Z,9.20
2017-09-02T23:44:02.151Z,8.40
2017-09-02T23:46:29.727Z,7.90
2017-09-02T23:48:57.239Z,8.57
2017-09-02T23:51:29.038Z,9.87
2017-09-02T23:53:56.593Z,8.70
2017-09-02T23:56:24.978Z,9.40
2017-09-02T23:58:52.494Z,8.03
